Dumbarton, United Kingdom
Current Conditions -  °F | °C
As of 10:20 AM on Thursday 18 Dec 2014 (Local Time) from EGPF Reporting Station
Drizzle Drizzle  
Wind Chill: 44°   Ceiling: 800
Heat Index: 46°   Visibility: 2.3mi
Dew Point: 46°   Wind: 6mph
Humidity: 100%   Direction: 260°W
Pressure: 29.32"   Gusts: NA
Location:  55.95°N, 4.55°W
Report Text: EGPF 181020Z 26005KT 3800 DZ FEW005 BKN008 OVC014 08/08 Q0993
Loading
Personal Weather Stations






























Interactive Weather Map New forecast layout! Learn more

10-Day Weather Forecast

Advertisements
Track Severe Weather on mobile